Miami, Florida
Traffic Map
Current Weather Conditions
Miami, Florida
Few Clouds
Few Clouds
63°
Feels Like: 63°
Wind Chill: 63° Ceiling: Unl
Heat Index: 63° Visibility: 10mi
Dew Point: 36° Wind: 8mph
Humidity: 37% Direction: 290° (WNW)
Pressure: 30.01in Gusts: 18mph
Raw Report DataKMIA 072153Z 29007G16KT 10SM FEW055 FEW250 17/02 A3001 RMK AO2 SLP160 T01720022
Traffic Incident Summary
Active as of:
Severity:
Category:
InformationThere was an issue retrieving the traffic information for this location. Please try a different location or try again shortly.
Advertisements
Track Severe Weather on mobile